Time;durP1;ratioP1;P1;durP2;ratioP2;P2;SDS_P1;SDS_P2;PMS_P1;PMS_P2;Temp;Humidity;BMP_temperature;BMP_pressure;BME280_temperature;BME280_humidity;BME280_pressure;Samples;Min_cycle;Max_cycle;Signal;HPM_P1;HPM_P2
2022/06/22 00:02:07;;;;;;;5.95;3.90;;;;;;;;;;5072197;28;20082;-49
2022/06/22 00:04:37;;;;;;;4.75;3.00;;;;;;;;;;5071204;28;20052;-50
2022/06/22 00:07:28;;;;;;;4.65;3.47;;;;;;;;;;5072364;28;20530;-54
2022/06/22 00:10:22;;;;;;;5.20;3.30;;;;;;;;;;5072096;28;20044;-54
2022/06/22 00:12:53;;;;;;;7.00;3.83;;;;;;;;;;5071936;28;20399;-54
2022/06/22 00:15:37;;;;;;;6.70;3.80;;;;;;;;;;5072409;28;20499;-52
2022/06/22 00:18:24;;;;;;;3.80;2.70;;;;;;;;;;5055195;28;20102;-55
2022/06/22 00:20:55;;;;;;;4.30;2.85;;;;;;;;;;5072514;28;20045;-54
2022/06/22 00:23:40;;;;;;;4.15;2.70;;;;;;;;;;5072205;28;20048;-55
2022/06/22 00:26:20;;;;;;;4.97;3.15;;;;;;;;;;5071860;28;20090;-55
2022/06/22 00:29:05;;;;;;;5.47;2.67;;;;;;;;;;5071975;28;20152;-54
2022/06/22 00:31:43;;;;;;;3.83;2.72;;;;;;;;;;5072019;28;20499;-47
2022/06/22 00:34:11;;;;;;;3.95;2.47;;;;;;;;;;5071806;28;20106;-45
2022/06/22 00:36:38;;;;;;;5.05;3.28;;;;;;;;;;5071199;28;20458;-47
2022/06/22 00:39:21;;;;;;;7.18;3.35;;;;;;;;;;5071556;28;20036;-49
2022/06/22 00:42:00;;;;;;;4.35;2.85;;;;;;;;;;5071741;28;20041;-45
2022/06/22 00:44:31;;;;;;;6.47;3.00;;;;;;;;;;5071455;28;20040;-53
2022/06/22 00:47:16;;;;;;;5.20;2.97;;;;;;;;;;5071654;28;20177;-52
2022/06/22 00:49:44;;;;;;;4.43;2.72;;;;;;;;;;5071320;28;20450;-50
2022/06/22 00:52:21;;;;;;;5.05;2.83;;;;;;;;;;5071289;28;20044;-54
2022/06/22 00:54:50;;;;;;;7.07;2.95;;;;;;;;;;5071450;28;20575;-52
2022/06/22 00:57:27;;;;;;;3.83;2.67;;;;;;;;;;5071413;28;20131;-53
2022/06/22 01:00:20;;;;;;;4.13;2.80;;;;;;;;;;5071058;28;20040;-55
2022/06/22 01:02:55;;;;;;;3.83;2.63;;;;;;;;;;5071249;28;20036;-52
2022/06/22 01:05:27;;;;;;;5.20;2.65;;;;;;;;;;5071271;28;20072;-54
2022/06/22 01:08:32;;;;;;;4.80;2.95;;;;;;;;;;5071351;28;20509;-42
2022/06/22 01:11:06;;;;;;;5.68;2.65;;;;;;;;;;5063313;28;20088;-53
2022/06/22 01:13:40;;;;;;;5.05;2.90;;;;;;;;;;5070745;28;20053;-52
2022/06/22 01:16:17;;;;;;;4.40;2.70;;;;;;;;;;5071045;28;20056;-45
2022/06/22 01:18:59;;;;;;;6.28;3.28;;;;;;;;;;5070940;28;20048;-44
2022/06/22 01:21:40;;;;;;;11.43;2.80;;;;;;;;;;5070879;28;20041;-45
2022/06/22 01:24:29;;;;;;;4.03;2.70;;;;;;;;;;5071010;28;20043;-46
2022/06/22 01:27:21;;;;;;;4.25;3.17;;;;;;;;;;5070396;28;20101;-44
2022/06/22 01:29:55;;;;;;;4.88;2.35;;;;;;;;;;5069593;28;20048;-52
2022/06/22 01:32:27;;;;;;;4.40;2.60;;;;;;;;;;5070694;28;20044;-46
2022/06/22 01:34:59;;;;;;;3.85;2.47;;;;;;;;;;5086104;28;20123;-48
2022/06/22 01:37:33;;;;;;;4.22;2.35;;;;;;;;;;5070268;28;20067;-47
2022/06/22 01:40:01;;;;;;;4.80;3.28;;;;;;;;;;5050505;28;20045;-49
2022/06/22 01:42:39;;;;;;;6.63;2.80;;;;;;;;;;5050473;28;20451;-47
2022/06/22 01:45:09;;;;;;;6.10;3.30;;;;;;;;;;5050443;28;20048;-46
2022/06/22 01:47:50;;;;;;;4.57;2.90;;;;;;;;;;5049605;28;20068;-47
2022/06/22 01:50:29;;;;;;;4.10;2.90;;;;;;;;;;5050463;28;20131;-49
2022/06/22 01:53:30;;;;;;;5.43;3.35;;;;;;;;;;5050515;28;20041;-50
2022/06/22 01:56:14;;;;;;;5.13;3.45;;;;;;;;;;5050154;28;20049;-48
2022/06/22 01:58:51;;;;;;;5.93;3.30;;;;;;;;;;5050132;28;20106;-48
2022/06/22 02:01:48;;;;;;;4.78;2.78;;;;;;;;;;5050461;28;20053;-55
2022/06/22 02:04:51;;;;;;;3.70;2.65;;;;;;;;;;5050105;28;20041;-52
2022/06/22 02:07:45;;;;;;;5.53;2.55;;;;;;;;;;5050216;28;20071;-49
2022/06/22 02:10:24;;;;;;;3.83;2.55;;;;;;;;;;5049971;28;20036;-51
2022/06/22 02:13:29;;;;;;;5.93;3.00;;;;;;;;;;5049984;28;20049;-56
2022/06/22 02:16:24;;;;;;;7.32;3.10;;;;;;;;;;5050325;28;20033;-53
2022/06/22 02:19:09;;;;;;;4.07;2.63;;;;;;;;;;5060656;28;20053;-56
2022/06/22 02:21:45;;;;;;;5.70;2.33;;;;;;;;;;5050061;28;20138;-55
2022/06/22 02:24:31;;;;;;;3.80;2.63;;;;;;;;;;5049925;28;20565;-55
2022/06/22 02:27:12;;;;;;;3.80;2.33;;;;;;;;;;5050213;28;20044;-55
2022/06/22 02:29:50;;;;;;;4.35;2.17;;;;;;;;;;5049887;28;20065;-53
2022/06/22 02:32:35;;;;;;;6.65;2.72;;;;;;;;;;5049838;28;20037;-48
2022/06/22 02:35:05;;;;;;;5.32;2.55;;;;;;;;;;5049928;28;20052;-54
2022/06/22 02:37:36;;;;;;;4.18;2.50;;;;;;;;;;5050765;28;20041;-46
2022/06/22 02:40:09;;;;;;;4.32;2.53;;;;;;;;;;5069837;28;20444;-45
2022/06/22 02:45:22;;;;;;;6.10;2.30;;;;;;;;;;5069790;28;20055;-47
2022/06/22 02:48:28;;;;;;;4.05;2.30;;;;;;;;;;5070046;28;20036;-48
2022/06/22 02:51:24;;;;;;;3.13;2.00;;;;;;;;;;5067009;28;20053;-52
2022/06/22 02:53:54;;;;;;;3.85;2.20;;;;;;;;;;5069799;28;20052;-55
2022/06/22 02:56:28;;;;;;;6.82;2.42;;;;;;;;;;5069985;28;20496;-46
2022/06/22 02:58:55;;;;;;;4.25;2.13;;;;;;;;;;5071823;28;20076;-47
2022/06/22 03:01:27;;;;;;;4.97;2.10;;;;;;;;;;5073653;28;20050;-54
2022/06/22 03:03:58;;;;;;;157.25;94.85;;;;;;;;;;5073515;28;20040;-42
2022/06/22 03:06:31;;;;;;;15.00;9.48;;;;;;;;;;5073337;28;20037;-55
2022/06/22 03:09:05;;;;;;;4.45;2.42;;;;;;;;;;5073456;28;20048;-48
2022/06/22 03:11:36;;;;;;;3.58;2.03;;;;;;;;;;5073448;28;20519;-49
2022/06/22 03:14:08;;;;;;;3.13;1.92;;;;;;;;;;5072984;28;20597;-49
2022/06/22 03:16:39;;;;;;;3.45;2.30;;;;;;;;;;5073098;28;20891;-55
2022/06/22 03:19:13;;;;;;;23.95;12.05;;;;;;;;;;5073323;28;20048;-47
2022/06/22 03:21:42;;;;;;;4.57;2.47;;;;;;;;;;5073148;28;20072;-47
2022/06/22 03:24:21;;;;;;;4.63;2.42;;;;;;;;;;5073194;28;20048;-51
2022/06/22 03:26:55;;;;;;;3.95;1.70;;;;;;;;;;5072331;28;20040;-49
2022/06/22 03:29:26;;;;;;;4.32;2.40;;;;;;;;;;5072993;28;20036;-54
2022/06/22 03:32:00;;;;;;;2.95;1.80;;;;;;;;;;5072925;28;20080;-47
2022/06/22 03:34:31;;;;;;;5.28;2.40;;;;;;;;;;5073038;28;20513;-46
2022/06/22 03:37:04;;;;;;;5.82;3.00;;;;;;;;;;5072896;28;20499;-49
2022/06/22 03:39:35;;;;;;;7.53;4.18;;;;;;;;;;5072835;28;20492;-48
2022/06/22 03:42:13;;;;;;;4.10;2.10;;;;;;;;;;5072769;28;20049;-56
2022/06/22 03:44:46;;;;;;;4.05;2.10;;;;;;;;;;5072729;28;20044;-56
2022/06/22 03:47:37;;;;;;;3.85;2.47;;;;;;;;;;5072605;28;20047;-45
2022/06/22 03:50:28;;;;;;;4.53;2.42;;;;;;;;;;5072675;28;20032;-52
2022/06/22 03:53:06;;;;;;;10.38;5.25;;;;;;;;;;5058932;28;20076;-50
2022/06/22 03:55:38;;;;;;;5.60;2.70;;;;;;;;;;5071367;28;20040;-50
2022/06/22 03:58:08;;;;;;;3.53;2.00;;;;;;;;;;5072588;28;20471;-56
2022/06/22 04:00:38;;;;;;;2.90;1.88;;;;;;;;;;5072477;28;20282;-53
2022/06/22 04:03:07;;;;;;;3.13;1.67;;;;;;;;;;5072120;28;20040;-55
2022/06/22 04:05:44;;;;;;;3.00;2.08;;;;;;;;;;5072309;28;20051;-52
2022/06/22 04:08:25;;;;;;;3.42;2.30;;;;;;;;;;5072379;28;20051;-55
2022/06/22 04:10:59;;;;;;;2.80;1.90;;;;;;;;;;5071623;28;20131;-54
2022/06/22 04:13:34;;;;;;;;;;;;;;;;;;5072669;28;20056;-45
2022/06/22 04:16:13;;;;;;;2.90;1.75;;;;;;;;;;5072250;28;19925;-55
2022/06/22 04:18:53;;;;;;;3.10;2.15;;;;;;;;;;5072311;28;20048;-53
2022/06/22 04:21:35;;;;;;;3.72;2.40;;;;;;;;;;5072077;28;20569;-55
2022/06/22 04:24:16;;;;;;;3.17;2.45;;;;;;;;;;5071802;28;20059;-56
2022/06/22 04:26:49;;;;;;;4.75;2.70;;;;;;;;;;5072155;28;20122;-46
2022/06/22 04:29:33;;;;;;;57.55;33.38;;;;;;;;;;5072300;28;20111;-51
2022/06/22 04:32:08;;;;;;;4.90;3.25;;;;;;;;;;5072167;28;20496;-47
2022/06/22 04:34:41;;;;;;;4.88;2.33;;;;;;;;;;5071716;28;20045;-48
2022/06/22 04:37:39;;;;;;;5.22;1.80;;;;;;;;;;5072803;28;20056;-57
2022/06/22 04:40:28;;;;;;;249.63;132.40;;;;;;;;;;5051831;28;20044;-48
2022/06/22 04:43:02;;;;;;;12.63;6.18;;;;;;;;;;5051290;28;20110;-46
2022/06/22 04:45:36;;;;;;;3.00;2.05;;;;;;;;;;5051691;28;20040;-55
2022/06/22 04:48:48;;;;;;;3.95;2.20;;;;;;;;;;5051363;28;20048;-55
2022/06/22 04:51:23;;;;;;;3.55;2.40;;;;;;;;;;5051299;28;20051;-56
2022/06/22 04:54:00;;;;;;;11.18;5.90;;;;;;;;;;5051659;28;20041;-56
2022/06/22 04:56:34;;;;;;;4.28;2.67;;;;;;;;;;5051469;28;20040;-46
2022/06/22 04:59:04;;;;;;;4.43;2.20;;;;;;;;;;5051321;28;20048;-57
2022/06/22 05:01:45;;;;;;;3.30;2.10;;;;;;;;;;5051067;28;20055;-55
2022/06/22 05:04:14;;;;;;;3.53;2.05;;;;;;;;;;5051492;28;20052;-53
2022/06/22 05:07:13;;;;;;;4.93;2.10;;;;;;;;;;5051451;28;20037;-50
2022/06/22 05:09:53;;;;;;;3.50;1.90;;;;;;;;;;5051418;28;20037;-47
2022/06/22 05:12:25;;;;;;;7.22;4.38;;;;;;;;;;5050951;28;20514;-56
2022/06/22 05:14:56;;;;;;;5.78;2.78;;;;;;;;;;5051628;28;20053;-54
2022/06/22 05:17:35;;;;;;;3.33;2.33;;;;;;;;;;5051137;28;20037;-51
2022/06/22 05:20:14;;;;;;;2.90;2.17;;;;;;;;;;5051014;28;20107;-54
2022/06/22 05:22:42;;;;;;;3.15;2.15;;;;;;;;;;5050268;28;20041;-58
2022/06/22 05:25:13;;;;;;;3.28;2.17;;;;;;;;;;5051029;28;20040;-55
2022/06/22 05:28:04;;;;;;;2.90;1.85;;;;;;;;;;5050894;28;20051;-57
2022/06/22 05:30:44;;;;;;;4.05;2.00;;;;;;;;;;5050283;28;20064;-56
2022/06/22 05:33:18;;;;;;;2.85;1.92;;;;;;;;;;5049968;28;20041;-56
2022/06/22 05:35:51;;;;;;;4.32;2.08;;;;;;;;;;5050695;28;20041;-57
2022/06/22 05:38:21;;;;;;;3.17;2.13;;;;;;;;;;5057598;28;20051;-57
2022/06/22 05:40:49;;;;;;;3.13;1.80;;;;;;;;;;5070250;28;20442;-57
2022/06/22 05:43:17;;;;;;;3.88;2.47;;;;;;;;;;5070210;28;20040;-48
2022/06/22 05:45:49;;;;;;;2.75;1.70;;;;;;;;;;5070585;28;20044;-47
2022/06/22 05:48:23;;;;;;;2.90;2.00;;;;;;;;;;5070483;28;20040;-45
2022/06/22 05:51:01;;;;;;;4.78;2.00;;;;;;;;;;5070709;28;20047;-50
2022/06/22 05:54:03;;;;;;;2.92;1.80;;;;;;;;;;5070465;28;20460;-49
2022/06/22 05:56:52;;;;;;;3.47;1.88;;;;;;;;;;5051478;28;20151;-47
2022/06/22 05:59:27;;;;;;;2.90;2.10;;;;;;;;;;5070523;28;20097;-49
2022/06/22 06:02:10;;;;;;;2.13;1.70;;;;;;;;;;5069951;28;20044;-46
2022/06/22 06:04:43;;;;;;;4.00;2.10;;;;;;;;;;5070377;28;20036;-50
2022/06/22 06:07:19;;;;;;;5.00;2.10;;;;;;;;;;5070120;28;20064;-48
2022/06/22 06:09:47;;;;;;;2.53;1.75;;;;;;;;;;5070384;28;20376;-46
2022/06/22 06:12:22;;;;;;;4.15;1.58;;;;;;;;;;5069801;28;20671;-52
2022/06/22 06:14:52;;;;;;;3.45;2.10;;;;;;;;;;5070246;28;20037;-53
2022/06/22 06:17:34;;;;;;;3.03;1.88;;;;;;;;;;5070400;28;20059;-51
2022/06/22 06:20:05;;;;;;;3.22;1.75;;;;;;;;;;5069782;28;20048;-48
2022/06/22 06:22:36;;;;;;;3.78;1.80;;;;;;;;;;5070129;28;21979;-57
2022/06/22 06:28:13;;;;;;;2.67;1.85;;;;;;;;;;5069839;28;20075;-48
2022/06/22 06:30:45;;;;;;;3.00;1.83;;;;;;;;;;5069888;28;20040;-51
2022/06/22 06:33:35;;;;;;;4.18;1.90;;;;;;;;;;5069519;28;20036;-57
2022/06/22 06:36:24;;;;;;;2.90;1.70;;;;;;;;;;5069668;28;20086;-50
2022/06/22 06:39:08;;;;;;;2.72;1.98;;;;;;;;;;5069985;28;20044;-47
2022/06/22 06:41:38;;;;;;;2.95;1.83;;;;;;;;;;5069745;28;20094;-57
2022/06/22 06:44:13;;;;;;;3.60;2.10;;;;;;;;;;5069641;28;20092;-57
2022/06/22 06:46:50;;;;;;;3.22;2.40;;;;;;;;;;5069682;28;20048;-52
2022/06/22 06:49:43;;;;;;;4.10;2.53;;;;;;;;;;5069794;28;20132;-52
2022/06/22 06:52:26;;;;;;;3.70;2.00;;;;;;;;;;5069498;28;20136;-53
2022/06/22 06:55:04;;;;;;;3.95;1.95;;;;;;;;;;5085521;28;20036;-57
2022/06/22 06:57:32;;;;;;;2.60;1.83;;;;;;;;;;5069947;28;20090;-56
2022/06/22 07:00:04;;;;;;;2.90;1.80;;;;;;;;;;5069410;28;20053;-57
2022/06/22 07:02:33;;;;;;;2.97;2.13;;;;;;;;;;5069501;28;20170;-57
2022/06/22 07:05:05;;;;;;;3.10;2.13;;;;;;;;;;5069708;28;20028;-57
2022/06/22 07:07:47;;;;;;;4.35;2.22;;;;;;;;;;5069678;28;20127;-57
2022/06/22 07:10:20;;;;;;;4.25;2.20;;;;;;;;;;5069659;28;20502;-57
2022/06/22 07:12:51;;;;;;;3.25;1.95;;;;;;;;;;5069349;28;20072;-55
2022/06/22 07:15:22;;;;;;;3.28;2.10;;;;;;;;;;5069381;28;20037;-43
2022/06/22 07:17:54;;;;;;;3.45;2.10;;;;;;;;;;5069626;28;20041;-49
2022/06/22 07:20:27;;;;;;;3.67;1.95;;;;;;;;;;5069828;28;20044;-56
2022/06/22 07:23:05;;;;;;;2.72;2.20;;;;;;;;;;5069521;28;20106;-49
2022/06/22 07:25:45;;;;;;;3.20;2.20;;;;;;;;;;5069458;28;20400;-53
2022/06/22 07:28:26;;;;;;;5.10;2.10;;;;;;;;;;5069396;28;20128;-43
2022/06/22 07:31:02;;;;;;;2.67;2.00;;;;;;;;;;5069539;28;20040;-46
2022/06/22 07:33:35;;;;;;;2.65;1.80;;;;;;;;;;5069239;28;20055;-46
2022/06/22 07:36:11;;;;;;;2.70;1.90;;;;;;;;;;5069035;28;20051;-54
2022/06/22 07:38:44;;;;;;;5.18;2.30;;;;;;;;;;5069110;28;20052;-48
2022/06/22 07:41:19;;;;;;;3.40;2.42;;;;;;;;;;5069308;28;20051;-58
2022/06/22 07:44:06;;;;;;;3.10;2.10;;;;;;;;;;5069324;28;20036;-50
2022/06/22 07:46:40;;;;;;;5.03;1.90;;;;;;;;;;5072035;28;20045;-57
2022/06/22 07:49:12;;;;;;;2.88;1.92;;;;;;;;;;5072570;28;20102;-55
2022/06/22 07:52:01;;;;;;;2.75;1.95;;;;;;;;;;5072888;28;20115;-53
2022/06/22 07:54:34;;;;;;;3.35;2.13;;;;;;;;;;5072671;28;20499;-48
2022/06/22 07:57:13;;;;;;;3.95;1.92;;;;;;;;;;5072550;28;20045;-56
2022/06/22 07:59:48;;;;;;;3.10;2.05;;;;;;;;;;5072443;28;20579;-58
2022/06/22 08:02:25;;;;;;;3.10;1.83;;;;;;;;;;5072290;28;20044;-54
2022/06/22 08:05:05;;;;;;;5.05;2.03;;;;;;;;;;5072527;28;20052;-53
2022/06/22 08:07:42;;;;;;;2.38;1.70;;;;;;;;;;5072210;28;20037;-47
2022/06/22 08:11:02;;;;;;;3.85;1.65;;;;;;;;;;5072297;28;20072;-51
2022/06/22 08:13:38;;;;;;;3.83;2.28;;;;;;;;;;5066514;28;20076;-55
2022/06/22 08:16:16;;;;;;;4.88;2.00;;;;;;;;;;5072226;28;20044;-55
2022/06/22 08:18:44;;;;;;;4.15;1.80;;;;;;;;;;5072114;28;20044;-58
2022/06/22 08:21:16;;;;;;;6.70;2.05;;;;;;;;;;5071865;28;20044;-57
2022/06/22 08:23:45;;;;;;;2.88;1.98;;;;;;;;;;5071807;28;20518;-56
2022/06/22 08:26:21;;;;;;;2.72;1.60;;;;;;;;;;5071891;28;20499;-55
2022/06/22 08:28:49;;;;;;;2.97;1.92;;;;;;;;;;5071915;28;20041;-54
2022/06/22 08:31:17;;;;;;;6.47;1.73;;;;;;;;;;5071839;28;20411;-54
2022/06/22 08:33:50;;;;;;;3.90;1.85;;;;;;;;;;5072142;28;20041;-57
2022/06/22 08:36:31;;;;;;;4.38;1.65;;;;;;;;;;5071588;28;20048;-57
2022/06/22 08:39:08;;;;;;;2.47;1.67;;;;;;;;;;5071684;28;20032;-57
2022/06/22 08:41:51;;;;;;;2.90;1.70;;;;;;;;;;5071445;28;20036;-54
2022/06/22 08:44:37;;;;;;;;;;;;;;;;;;5072226;28;20095;-48
2022/06/22 08:47:41;;;;;;;16.70;4.30;;;;;;;;;;5071485;28;19928;-44
2022/06/22 08:50:21;;;;;;;41.40;11.07;;;;;;;;;;5071689;28;20086;-47
2022/06/22 08:52:59;;;;;;;131.52;33.10;;;;;;;;;;5071697;28;20044;-53
2022/06/22 08:55:44;;;;;;;3.92;2.30;;;;;;;;;;5071233;28;20575;-48
2022/06/22 08:58:21;;;;;;;4.50;2.05;;;;;;;;;;5071196;28;20442;-49
2022/06/22 09:01:08;;;;;;;2.92;1.88;;;;;;;;;;5071465;28;20039;-46
2022/06/22 09:04:00;;;;;;;2.20;1.60;;;;;;;;;;5071427;28;20076;-56
2022/06/22 09:06:53;;;;;;;7.55;2.05;;;;;;;;;;5071241;28;20041;-58
2022/06/22 09:09:45;;;;;;;3.22;1.70;;;;;;;;;;5071444;28;20488;-54
2022/06/22 09:12:27;;;;;;;3.00;2.10;;;;;;;;;;5071023;28;20056;-52
2022/06/22 09:15:02;;;;;;;6.20;1.70;;;;;;;;;;5071485;28;20500;-47
2022/06/22 09:17:42;;;;;;;2.58;1.70;;;;;;;;;;5071036;28;20033;-53
2022/06/22 09:20:24;;;;;;;2.30;1.67;;;;;;;;;;5070361;28;20049;-51
2022/06/22 09:23:00;;;;;;;6.97;1.80;;;;;;;;;;5071295;28;20113;-51
2022/06/22 09:25:50;;;;;;;4.45;1.90;;;;;;;;;;5070621;28;20044;-50
2022/06/22 09:28:26;;;;;;;2.78;1.55;;;;;;;;;;5070620;28;20043;-57
2022/06/22 09:31:00;;;;;;;3.90;1.75;;;;;;;;;;5071061;28;20060;-49
2022/06/22 09:33:39;;;;;;;3.40;1.63;;;;;;;;;;5070911;28;20040;-53
2022/06/22 09:36:31;;;;;;;4.57;1.92;;;;;;;;;;5070480;28;20400;-52
2022/06/22 09:39:26;;;;;;;2.88;2.00;;;;;;;;;;5070493;28;20094;-57
2022/06/22 09:42:03;;;;;;;3.35;1.58;;;;;;;;;;5071027;28;20123;-54
2022/06/22 09:44:42;;;;;;;2.88;1.70;;;;;;;;;;5070765;28;20040;-52
2022/06/22 09:47:25;;;;;;;2.58;1.80;;;;;;;;;;5070329;28;20041;-52
2022/06/22 09:50:29;;;;;;;2.53;1.65;;;;;;;;;;5070820;28;20105;-49
2022/06/22 09:53:02;;;;;;;4.05;1.80;;;;;;;;;;5070548;28;20062;-54
2022/06/22 09:59:02;;;;;;;2.83;1.50;;;;;;;;;;5070178;28;20033;-57
2022/06/22 10:02:16;;;;;;;1.95;1.38;;;;;;;;;;5068538;28;20078;-58
2022/06/22 10:05:05;;;;;;;3.50;1.40;;;;;;;;;;5067896;28;20056;-55
2022/06/22 10:08:00;;;;;;;4.72;2.00;;;;;;;;;;5069696;28;20067;-53
2022/06/22 10:10:49;;;;;;;2.20;1.55;;;;;;;;;;5070400;28;20048;-54
2022/06/22 10:13:20;;;;;;;2.25;1.55;;;;;;;;;;5069899;28;20495;-48
2022/06/22 10:16:15;;;;;;;3.13;1.80;;;;;;;;;;5070044;28;20127;-43
2022/06/22 10:19:11;;;;;;;2.92;1.90;;;;;;;;;;5070012;28;20044;-48
2022/06/22 10:22:15;;;;;;;2.33;1.33;;;;;;;;;;5069908;28;20553;-49
2022/06/22 10:24:52;;;;;;;4.65;1.58;;;;;;;;;;5069936;28;20040;-48
2022/06/22 10:27:40;;;;;;;3.65;1.42;;;;;;;;;;5069906;28;20048;-48
2022/06/22 10:30:25;;;;;;;1.80;1.27;;;;;;;;;;5070041;28;20056;-47
2022/06/22 10:33:30;;;;;;;3.35;1.77;;;;;;;;;;5069860;28;20045;-50
2022/06/22 10:36:31;;;;;;;3.58;1.30;;;;;;;;;;5069727;28;20048;-46
2022/06/22 10:39:44;;;;;;;4.40;1.52;;;;;;;;;;5064827;28;20041;-57
2022/06/22 10:45:43;;;;;;;2.97;1.70;;;;;;;;;;5007832;28;20615;-57
2022/06/22 10:48:38;;;;;;;2.20;1.35;;;;;;;;;;5007841;28;20275;-58
2022/06/22 10:51:19;;;;;;;2.58;1.65;;;;;;;;;;5042532;28;20128;-57
2022/06/22 10:54:15;;;;;;;3.00;1.40;;;;;;;;;;5049683;28;20095;-58
2022/06/22 10:57:04;;;;;;;3.05;1.77;;;;;;;;;;5049646;28;20041;-57
2022/06/22 10:59:50;;;;;;;4.47;1.63;;;;;;;;;;5049433;28;20374;-56
2022/06/22 11:03:11;;;;;;;2.35;1.65;;;;;;;;;;5049790;28;20136;-49
2022/06/22 11:05:48;;;;;;;3.53;1.70;;;;;;;;;;5039546;28;20206;-58
2022/06/22 11:08:43;;;;;;;2.78;1.65;;;;;;;;;;5049339;28;20516;-54
2022/06/22 11:11:22;;;;;;;5.95;1.40;;;;;;;;;;5049416;28;20056;-56
2022/06/22 11:14:18;;;;;;;3.10;1.70;;;;;;;;;;5049620;28;20056;-48
2022/06/22 11:17:04;;;;;;;2.70;1.60;;;;;;;;;;5049127;28;20045;-57
2022/06/22 11:20:01;;;;;;;3.17;1.48;;;;;;;;;;5049595;28;20051;-58
2022/06/22 11:22:41;;;;;;;2.65;1.40;;;;;;;;;;5051539;28;20057;-57
2022/06/22 11:31:51;;;;;;;3.28;1.63;;;;;;;;;;5053229;28;20056;-58
2022/06/22 11:34:41;;;;;;;3.25;1.50;;;;;;;;;;5052987;28;20491;-58
2022/06/22 11:37:22;;;;;;;3.50;1.85;;;;;;;;;;5053135;28;20063;-58
2022/06/22 11:40:37;;;;;;;2.63;1.75;;;;;;;;;;5052972;28;20082;-55
2022/06/22 11:43:23;;;;;;;2.13;1.42;;;;;;;;;;5051725;28;20123;-48
2022/06/22 11:46:05;;;;;;;4.82;1.88;;;;;;;;;;5052985;28;20045;-49
2022/06/22 11:48:56;;;;;;;3.40;1.60;;;;;;;;;;5052874;28;20087;-47
2022/06/22 11:51:42;;;;;;;6.00;2.10;;;;;;;;;;5052762;28;20131;-44
2022/06/22 11:54:34;;;;;;;2.83;1.60;;;;;;;;;;5052711;28;20128;-45
2022/06/22 11:57:28;;;;;;;3.08;1.60;;;;;;;;;;5052727;28;20416;-47
2022/06/22 12:00:33;;;;;;;3.05;1.77;;;;;;;;;;5052555;28;20098;-49
2022/06/22 12:03:25;;;;;;;3.22;1.58;;;;;;;;;;5052615;28;20041;-50
2022/06/22 12:06:11;;;;;;;2.67;1.65;;;;;;;;;;5052352;28;20458;-49
2022/06/22 12:08:53;;;;;;;2.15;1.30;;;;;;;;;;5052371;28;20049;-57
2022/06/22 12:11:48;;;;;;;2.03;1.30;;;;;;;;;;5052450;28;20128;-50
2022/06/22 12:17:20;;;;;;;3.25;1.60;;;;;;;;;;5051924;28;20080;-51
2022/06/22 12:20:11;;;;;;;3.95;1.70;;;;;;;;;;5052293;28;20041;-51
2022/06/22 12:23:09;;;;;;;2.75;1.60;;;;;;;;;;5054768;28;20163;-49
2022/06/22 12:25:59;;;;;;;3.03;1.50;;;;;;;;;;5067476;28;20512;-52
2022/06/22 12:28:48;;;;;;;2.63;1.42;;;;;;;;;;5072103;28;20095;-43
2022/06/22 12:31:21;;;;;;;3.17;2.00;;;;;;;;;;5071568;28;20052;-52
2022/06/22 12:33:59;;;;;;;8.93;7.43;;;;;;;;;;5071940;28;20119;-50
2022/06/22 12:36:35;;;;;;;2.65;1.83;;;;;;;;;;5072123;28;20036;-44
2022/06/22 12:39:10;;;;;;;2.45;1.40;;;;;;;;;;5071401;28;20056;-50
2022/06/22 12:42:00;;;;;;;2.45;1.60;;;;;;;;;;5071907;28;20036;-57
2022/06/22 12:44:53;;;;;;;2.95;1.77;;;;;;;;;;5071752;28;20049;-57
2022/06/22 12:47:56;;;;;;;3.10;1.75;;;;;;;;;;5071767;28;20072;-56
2022/06/22 12:50:38;;;;;;;2.35;1.60;;;;;;;;;;5071736;28;20045;-57
2022/06/22 12:53:11;;;;;;;3.00;1.35;;;;;;;;;;5071532;28;20043;-48
2022/06/22 12:55:45;;;;;;;1.85;1.45;;;;;;;;;;5071604;28;20051;-49
2022/06/22 12:58:26;;;;;;;6.82;2.22;;;;;;;;;;5071563;28;20044;-57
2022/06/22 13:00:57;;;;;;;2.92;1.75;;;;;;;;;;5071442;28;20541;-58
2022/06/22 13:03:37;;;;;;;1.83;1.27;;;;;;;;;;5071347;28;20059;-56
2022/06/22 13:06:04;;;;;;;2.97;1.98;;;;;;;;;;5071364;28;20047;-56
2022/06/22 13:08:32;;;;;;;2.33;1.40;;;;;;;;;;5071185;28;20084;-52
2022/06/22 13:11:06;;;;;;;3.83;1.70;;;;;;;;;;5071300;28;20053;-55
2022/06/22 13:13:45;;;;;;;4.07;1.60;;;;;;;;;;5070804;28;20057;-52
2022/06/22 13:16:25;;;;;;;3.53;1.83;;;;;;;;;;5070887;28;20496;-46
2022/06/22 13:19:02;;;;;;;4.63;1.95;;;;;;;;;;5071062;28;20503;-48
2022/06/22 13:21:58;;;;;;;2.67;1.67;;;;;;;;;;5071105;28;20087;-47
2022/06/22 13:24:50;;;;;;;2.80;1.90;;;;;;;;;;5066959;28;20036;-57
2022/06/22 13:27:42;;;;;;;5.70;2.00;;;;;;;;;;5070968;28;20090;-58
2022/06/22 13:30:16;;;;;;;4.00;2.65;;;;;;;;;;5070721;28;20102;-57
2022/06/22 13:33:15;;;;;;;3.53;2.10;;;;;;;;;;5070511;28;20177;-57
2022/06/22 13:35:57;;;;;;;2.58;1.75;;;;;;;;;;5070440;28;20577;-57
2022/06/22 13:38:37;;;;;;;2.70;1.73;;;;;;;;;;5069349;28;20456;-51
2022/06/22 13:41:34;;;;;;;3.10;1.90;;;;;;;;;;5070851;28;20385;-54
2022/06/22 13:44:19;;;;;;;2.72;1.50;;;;;;;;;;5069778;28;20044;-56
2022/06/22 13:47:09;;;;;;;3.42;1.75;;;;;;;;;;5069071;28;20567;-56
2022/06/22 13:49:57;;;;;;;3.35;2.30;;;;;;;;;;5070350;28;20052;-51
2022/06/22 13:52:41;;;;;;;3.80;1.90;;;;;;;;;;5070643;28;20502;-50
2022/06/22 13:55:28;;;;;;;4.70;2.03;;;;;;;;;;5070528;28;20059;-47
2022/06/22 13:58:20;;;;;;;3.92;2.08;;;;;;;;;;5070081;28;20044;-54
2022/06/22 14:01:00;;;;;;;8.88;5.28;;;;;;;;;;5070172;28;20442;-57
2022/06/22 14:04:09;;;;;;;3.30;2.17;;;;;;;;;;5070136;28;20111;-51
2022/06/22 14:06:49;;;;;;;3.35;1.73;;;;;;;;;;5070140;28;20032;-58
2022/06/22 14:09:31;;;;;;;4.60;2.08;;;;;;;;;;5070216;28;20052;-58
2022/06/22 14:12:20;;;;;;;2.78;1.90;;;;;;;;;;5069991;28;20119;-57
2022/06/22 14:15:17;;;;;;;2.85;1.83;;;;;;;;;;5070157;28;20083;-57
2022/06/22 14:18:03;;;;;;;2.47;1.52;;;;;;;;;;5070256;28;20549;-58
2022/06/22 14:20:39;;;;;;;3.70;1.70;;;;;;;;;;5069855;28;20051;-57
2022/06/22 14:23:13;;;;;;;4.20;1.60;;;;;;;;;;5070149;28;20086;-54
2022/06/22 14:26:18;;;;;;;2.30;1.35;;;;;;;;;;5069968;28;20496;-58
2022/06/22 14:29:11;;;;;;;2.10;1.45;;;;;;;;;;5069962;28;20044;-58
2022/06/22 14:32:17;;;;;;;4.22;1.60;;;;;;;;;;5072026;28;20127;-51
2022/06/22 14:35:21;;;;;;;2.42;1.17;;;;;;;;;;5069877;28;20078;-56
2022/06/22 14:37:48;;;;;;;;;;;;;;;;;;5070075;28;20036;-58
2022/06/22 14:40:40;;;;;;;1.75;1.05;;;;;;;;;;5069955;28;19963;-57
2022/06/22 14:43:26;;;;;;;1.88;1.20;;;;;;;;;;5069682;28;20102;-57
2022/06/22 14:46:06;;;;;;;1.90;1.20;;;;;;;;;;5068629;28;20044;-53
2022/06/22 14:48:40;;;;;;;2.55;1.27;;;;;;;;;;5069931;28;20045;-56
2022/06/22 14:51:22;;;;;;;22.42;14.13;;;;;;;;;;5069597;28;20523;-57
2022/06/22 14:54:12;;;;;;;3.33;1.75;;;;;;;;;;5070216;28;20051;-53
2022/06/22 14:56:47;;;;;;;1.85;1.30;;;;;;;;;;5073953;28;20071;-57
2022/06/22 14:59:27;;;;;;;2.38;1.52;;;;;;;;;;5073104;28;20040;-57
2022/06/22 15:02:10;;;;;;;3.38;1.30;;;;;;;;;;5073068;28;20048;-44
2022/06/22 15:04:51;;;;;;;2.67;1.30;;;;;;;;;;5073878;28;20044;-47
2022/06/22 15:07:26;;;;;;;1.88;1.20;;;;;;;;;;5073698;28;20037;-46
2022/06/22 15:10:02;;;;;;;3.88;1.95;;;;;;;;;;5073566;28;20036;-50
2022/06/22 15:15:47;;;;;;;2.03;1.27;;;;;;;;;;5073525;28;20109;-57
2022/06/22 15:19:06;;;;;;;3.40;1.42;;;;;;;;;;5072076;28;20400;-57
2022/06/22 15:21:54;;;;;;;2.20;1.50;;;;;;;;;;5073391;28;20136;-56
2022/06/22 15:25:01;;;;;;;3.45;1.50;;;;;;;;;;5073222;28;20059;-57
2022/06/22 15:27:35;;;;;;;2.47;1.48;;;;;;;;;;5073436;28;20047;-57
2022/06/22 15:30:12;;;;;;;641.00;441.83;;;;;;;;;;5072972;28;20052;-54
2022/06/22 15:33:01;;;;;;;29.63;16.13;;;;;;;;;;5073296;28;20041;-51
2022/06/22 15:35:41;;;;;;;3.35;1.80;;;;;;;;;;5072049;28;20041;-58
2022/06/22 15:38:33;;;;;;;3.45;1.92;;;;;;;;;;5072817;28;20393;-47
2022/06/22 15:41:29;;;;;;;4.78;1.83;;;;;;;;;;5073234;28;20048;-48
2022/06/22 15:44:13;;;;;;;3.28;1.77;;;;;;;;;;5073071;28;20098;-49
2022/06/22 15:46:56;;;;;;;5.10;2.20;;;;;;;;;;5073123;28;20043;-55
2022/06/22 15:49:27;;;;;;;4.82;2.28;;;;;;;;;;5072803;28;20108;-54
2022/06/22 15:52:16;;;;;;;5.13;2.33;;;;;;;;;;5072913;28;20044;-53
2022/06/22 15:55:01;;;;;;;3.45;2.10;;;;;;;;;;5072764;28;20508;-55
2022/06/22 15:57:35;;;;;;;8.13;1.95;;;;;;;;;;5072915;28;20052;-50
2022/06/22 16:00:05;;;;;;;5.80;2.60;;;;;;;;;;5072437;28;20086;-48
2022/06/22 16:02:54;;;;;;;4.15;2.00;;;;;;;;;;5072656;28;20048;-55
2022/06/22 16:05:35;;;;;;;3.70;2.42;;;;;;;;;;5071882;28;20101;-55
2022/06/22 16:08:34;;;;;;;4.90;2.20;;;;;;;;;;5072544;28;20045;-46
2022/06/22 16:14:22;;;;;;;4.55;2.80;;;;;;;;;;5072249;28;20053;-52
2022/06/22 16:17:01;;;;;;;4.47;2.80;;;;;;;;;;5070970;28;20041;-51
2022/06/22 16:19:35;;;;;;;3.40;2.22;;;;;;;;;;5072512;28;20036;-57
2022/06/22 16:22:12;;;;;;;7.00;2.92;;;;;;;;;;5072137;28;20055;-45
2022/06/22 16:24:44;;;;;;;5.10;3.45;;;;;;;;;;5071997;28;20155;-55
2022/06/22 16:27:28;;;;;;;4.28;2.92;;;;;;;;;;5070928;28;20037;-55
2022/06/22 16:29:58;;;;;;;5.00;2.90;;;;;;;;;;5072156;28;20507;-54
2022/06/22 16:32:31;;;;;;;5.38;3.47;;;;;;;;;;5072245;28;20059;-53
2022/06/22 16:35:24;;;;;;;4.68;3.38;;;;;;;;;;5061646;28;20102;-47
2022/06/22 16:38:07;;;;;;;6.70;4.80;;;;;;;;;;5054000;28;20045;-47